Flight Track Log - Related Links

Times and Time Zones

All times are in EDT time to prevent confusion due to time zone crossing. See the RPA3321 flight status page for this flight to view local times or setup timezone preferences in your user account.

Time Position Orientation Groundspeed Altitude Reporting Facility
EDT Latitude Longitude Course Direction KTS MPH feet Rate Location/Type
Sun 11:14:02 AM 38.8833 -77.0667 225° Southwest 188 216 1,700  Level Potomac TRACON
Sun 11:14:56 AM 38.9333 -77.1333 314° West 264 304 4,000 2,947 Climbing Potomac TRACON
Sun 11:15:00 AM 38.6665 -77.2337 237° Southwest  Level FlightAware Approximate
Sun 11:15:56 AM 38.9833 -77.2000 314° West 290 334 7,300  Level Potomac TRACON
Sun 11:16:00 AM 38.6089 -77.3078 218° Southwest  Level FlightAware Approximate
Sun 11:16:56 AM 38.9333 -77.2667 226° Southwest 299 344 10,700  Level Potomac TRACON
Sun 11:17:00 AM 38.5436 -77.3731 218° Southwest  Level FlightAware Approximate
Sun 11:17:50 AM 38.8667 -77.3167 210° Southwest 332 382 12,000  Level Potomac TRACON
Sun 11:18:00 AM 38.4842 -77.4466 225° Southwest  Level FlightAware Approximate
Sun 11:19:00 AM 38.4258 -77.5216 225° Southwest  Level FlightAware Approximate
Sun 11:20:10 AM 38.6617 -77.4236 202° Southwest 351 404 17,400  Level Washington Center
Sun 11:21:10 AM 38.5797 -77.4694 204° Southwest 351 404 18,900 1,627 Climbing Washington Center
Sun 11:22:08 AM 38.4872 -77.5200 203° Southwest 357 411 20,600 1,627 Climbing Washington Center
Sun 11:23:08 AM 38.3947 -77.5733 204° Southwest 362 417 22,100 1,537 Climbing Washington Center
Sun 11:24:09 AM 38.3261 -77.6747 229° Southwest 369 425 23,700 1,438 Climbing Washington Center
Sun 11:25:09 AM 38.2575 -77.7786 230° Southwest 375 432 25,000 1,240 Climbing Washington Center
Sun 11:26:10 AM 38.1911 -77.8850 232° Southwest 382 440 26,200 976 Climbing Washington Center
Sun 11:27:12 AM 38.1200 -77.9908 230° Southwest 393 452 27,000 800 Climbing Washington Center
Sun 11:28:10 AM 38.0511 -78.0969 231° Southwest 393 452 27,800 517 Climbing Washington Center
Sun 11:29:08 AM 37.9800 -78.2078 231° Southwest 393 452 28,000 101 Climbing Washington Center
Sun 11:30:09 AM 37.9067 -78.3131 229° Southwest 403 464 28,000  Level Washington Center
Sun 11:31:10 AM 37.8333 -78.4208 229° Southwest 403 464 28,000  Level Washington Center
Sun 11:32:10 AM 37.7514 -78.5361 228° Southwest 403 464 28,000  Level Washington Center
Sun 11:33:08 AM 37.6756 -78.6433 228° Southwest 403 464 28,000  Level Washington Center
Sun 11:34:08 AM 37.6000 -78.7478 228° Southwest 403 464 28,000  Level Washington Center
Sun 11:35:08 AM 37.5239 -78.8572 229° Southwest 408 470 28,000  Level Washington Center
Sun 11:36:09 AM 37.4567 -78.9511 228° Southwest 408 470 28,000  Level Washington Center
Sun 11:37:10 AM 37.3806 -79.0575 228° Southwest 413 475 28,000  Level Washington Center
Sun 11:38:10 AM 37.3044 -79.1639 228° Southwest 413 475 28,000  Level Washington Center
Sun 11:39:08 AM 37.2244 -79.2617 224° Southwest 413 475 28,000  Level Washington Center
Sun 11:40:09 AM 37.1303 -79.3406 214° Southwest 408 470 28,000  Level Washington Center
Sun 11:41:09 AM 37.0425 -79.4092 212° Southwest 396 456 28,000  Level Washington Center
Sun 11:42:07 AM 36.9589 -79.4803 214° Southwest 357 411 28,000  Level Washington Center
Sun 11:43:08 AM 36.8817 -79.5442 214° Southwest 343 395 28,000  Level Washington Center
Sun 11:44:09 AM 36.8000 -79.6100 213° Southwest 343 395 28,000  Level Washington Center
Sun 11:45:10 AM 36.7164 -79.6808 214° Southwest 343 395 28,000  Level Washington Center
Sun 11:46:10 AM 36.6369 -79.7439 212° Southwest 373 429 28,000 -295 Level Washington Center
Sun 11:47:12 AM 36.5364 -79.8219 212° Southwest 382 440 27,400 -1,279 Descending Atlanta Center
Sun 11:48:12 AM 36.4531 -79.8883 213° Southwest 382 440 25,400 -2,200 Descending Atlanta Center
Sun 11:49:12 AM 36.3719 -79.9569 214° Southwest 370 426 23,000 -1,700 Descending Atlanta Center
Sun 11:50:12 AM 36.2928 -80.0203 213° Southwest 350 403 22,000 -500 Descending Atlanta Center
Sun 11:51:12 AM 36.2258 -80.0803 216° Southwest 343 395 22,000 -550 Level Atlanta Center
Sun 11:52:12 AM 36.1489 -80.1458 215° Southwest 338 389 20,900 -1,400 Descending Atlanta Center
Sun 11:53:12 AM 36.0717 -80.2111 214° Southwest 338 389 19,200 -1,550 Descending Atlanta Center
Sun 11:54:12 AM 35.9964 -80.2761 215° Southwest 338 389 17,800 -1,800 Descending Atlanta Center
Sun 11:55:12 AM 35.9131 -80.3494 215° Southwest 338 389 15,600 -2,000 Descending Atlanta Center
Sun 11:56:12 AM 35.8419 -80.4114 215° Southwest 333 383 13,800 -1,550 Descending Atlanta Center
Sun 11:57:12 AM 35.7747 -80.4656 213° Southwest 312 359 12,500 -1,500 Descending Atlanta Center
Sun 11:58:12 AM 35.7117 -80.5194 215° Southwest 286 329 10,800 -1,850 Descending Atlanta Center
Sun 11:59:12 AM 35.6994 -80.6044 260° West 249 287 8,800 -1,400 Descending Atlanta Center
Sun 12:00:12 PM 35.6892 -80.6917 262° West 254 292 8,000 -400 Descending Atlanta Center
Sun 12:01:12 PM 35.6811 -80.7792 264° West 261 300 8,000  Level Atlanta Center
Sun 12:02:12 PM 35.6728 -80.8511 262° West 236 272 8,000  Level Atlanta Center
Sun 12:03:12 PM 35.6697 -80.8997 266° West 199 229 8,000  Level Atlanta Center
Sun 12:03:46 PM 35.6667 -80.9408 265° West 158 182 8,000  Level Atlanta Center
Sun 12:04:41 PM 35.6361 -80.9750 222° Southwest 179 206 8,000  Level Atlanta Center
Sun 12:05:42 PM 35.5864 -80.9819 186° South 187 215 8,000 -621 Level Atlanta Center
Sun 12:06:37 PM 35.5383 -80.9811 179° South 189 217 6,800 -1,190 Descending Atlanta Center
Sun 12:07:38 PM 35.4861 -80.9806 180° South 186 214 5,700 -1,026 Descending Atlanta Center
Sun 12:08:34 PM 35.4400 -80.9747 174° South 178 205 4,800 -927 Descending Atlanta Center
Sun 12:09:41 PM 35.3836 -80.9692 175° South 176 203 3,800 -891 Descending Atlanta Center
Sun 12:10:42 PM 35.3356 -80.9658 177° South 176 203 2,900 -934 Descending Atlanta Center
Sun 12:11:43 PM 35.2853 -80.9628 177° South 177 204 1,900 -844 Descending Atlanta Center
Sun 12:12:50 PM 35.2372 -80.9594 177° South 145 167 1,100 -716 Descending Atlanta Center

Login

Don't have an account? Register now (free) for customized features, flight alerts, and more!